createdAt,value
2017-11-05T00:00:04.250Z,0
2017-11-05T00:01:14.338Z,0
2017-11-05T00:02:24.405Z,0
2017-11-05T00:03:34.849Z,0
2017-11-05T00:04:45.297Z,0
2017-11-05T00:05:55.706Z,0
2017-11-05T00:07:05.772Z,0
2017-11-05T00:08:15.845Z,0
2017-11-05T00:09:26.273Z,0
2017-11-05T00:10:36.004Z,0
2017-11-05T00:11:46.079Z,0
2017-11-05T00:12:56.479Z,0
2017-11-05T00:14:06.912Z,0
2017-11-05T00:20:36.998Z,0
2017-11-05T00:21:47.407Z,0
2017-11-05T00:22:59.078Z,0
2017-11-05T00:24:09.138Z,0
2017-11-05T00:25:19.531Z,0
2017-11-05T00:26:29.927Z,0
2017-11-05T00:27:40.012Z,0
2017-11-05T00:28:50.406Z,0
2017-11-05T00:30:00.798Z,0
2017-11-05T00:31:11.194Z,0
2017-11-05T00:32:21.613Z,0
2017-11-05T00:33:32.013Z,0
2017-11-05T00:34:42.080Z,0
2017-11-05T00:35:51.834Z,0
2017-11-05T00:37:01.917Z,0
2017-11-05T00:38:11.731Z,0
2017-11-05T00:39:21.797Z,0
2017-11-05T00:40:31.880Z,0
2017-11-05T00:41:42.272Z,0
2017-11-05T00:42:52.345Z,0
2017-11-05T00:44:02.401Z,0
2017-11-05T00:45:12.800Z,0
2017-11-05T00:46:23.193Z,0
2017-11-05T00:47:33.273Z,0
2017-11-05T00:48:43.664Z,0
2017-11-05T00:49:54.118Z,0
2017-11-05T00:51:04.527Z,0
2017-11-05T00:52:14.826Z,0
2017-11-05T00:53:25.241Z,0
2017-11-05T00:54:35.314Z,0
2017-11-05T00:55:45.772Z,0
2017-11-05T00:56:55.833Z,0
2017-11-05T00:58:05.913Z,0
2017-11-05T00:59:16.316Z,0
2017-11-05T01:00:26.057Z,0
2017-11-05T01:01:37.631Z,0
2017-11-05T01:02:47.694Z,0
2017-11-05T01:03:57.754Z,0
2017-11-05T01:05:08.174Z,0
2017-11-05T01:06:18.381Z,0
2017-11-05T01:07:28.833Z,0
2017-11-05T01:08:38.921Z,0
2017-11-05T01:09:49.313Z,0
2017-11-05T01:10:59.713Z,0
2017-11-05T01:12:09.816Z,0
2017-11-05T01:13:19.919Z,0
2017-11-05T01:14:30.322Z,0
2017-11-05T01:15:41.673Z,0
2017-11-05T01:16:51.749Z,0
2017-11-05T01:18:02.148Z,0
2017-11-05T01:19:12.601Z,0
2017-11-05T01:20:23.019Z,0
2017-11-05T01:21:33.112Z,0
2017-11-05T01:22:43.512Z,0
2017-11-05T01:23:53.916Z,0
2017-11-05T01:25:04.041Z,0
2017-11-05T01:26:14.109Z,0
2017-11-05T01:27:24.510Z,0
2017-11-05T01:28:34.591Z,0
2017-11-05T01:29:44.996Z,0
2017-11-05T01:30:55.067Z,0
2017-11-05T01:32:05.467Z,0
2017-11-05T01:33:15.255Z,0
2017-11-05T01:34:25.013Z,0
2017-11-05T01:35:35.413Z,0
2017-11-05T01:36:45.826Z,0
2017-11-05T01:37:56.234Z,0
2017-11-05T01:39:06.624Z,0
2017-11-05T01:40:16.678Z,0
2017-11-05T01:41:26.742Z,0
2017-11-05T01:42:36.850Z,0
2017-11-05T01:43:47.244Z,0
2017-11-05T01:44:57.630Z,0
2017-11-05T01:46:07.692Z,0
2017-11-05T01:47:18.104Z,0
2017-11-05T01:48:28.173Z,0
2017-11-05T01:49:38.227Z,0
2017-11-05T01:50:48.643Z,0
2017-11-05T01:51:58.725Z,0
2017-11-05T01:53:09.134Z,0
2017-11-05T01:54:19.533Z,0
2017-11-05T01:55:29.941Z,0
2017-11-05T01:56:40.347Z,0
2017-11-05T01:57:50.414Z,0
2017-11-05T01:59:00.806Z,0
2017-11-05T02:00:11.198Z,0
2017-11-05T02:01:21.613Z,0
2017-11-05T02:02:31.672Z,0
2017-11-05T02:03:41.723Z,0
2017-11-05T02:04:52.129Z,0
2017-11-05T02:06:02.576Z,0
2017-11-05T02:07:12.968Z,0
2017-11-05T02:08:23.375Z,0
2017-11-05T02:09:33.777Z,0
2017-11-05T02:10:44.186Z,0
2017-11-05T02:11:54.628Z,0
2017-11-05T02:13:04.702Z,0
2017-11-05T02:14:15.088Z,0
2017-11-05T02:15:25.156Z,0
2017-11-05T02:16:35.564Z,0
2017-11-05T02:17:46.559Z,0
2017-11-05T02:18:56.310Z,0
2017-11-05T02:20:06.706Z,0
2017-11-05T02:21:17.110Z,0
2017-11-05T02:22:27.510Z,0
2017-11-05T02:23:37.592Z,0
2017-11-05T02:24:47.669Z,0
2017-11-05T02:25:58.068Z,0
2017-11-05T02:27:08.473Z,0
2017-11-05T02:28:18.922Z,0
2017-11-05T02:29:29.052Z,0
2017-11-05T02:30:39.123Z,0
2017-11-05T02:31:49.526Z,0
2017-11-05T02:32:59.602Z,0
2017-11-05T02:34:10.042Z,0
2017-11-05T02:35:19.780Z,0
2017-11-05T02:36:30.173Z,0
2017-11-05T02:37:40.254Z,0
2017-11-05T02:38:50.646Z,0
2017-11-05T02:40:01.069Z,0
2017-11-05T02:41:11.150Z,0
2017-11-05T02:42:21.561Z,0
2017-11-05T02:43:31.623Z,0
2017-11-05T02:44:41.695Z,0
2017-11-05T02:45:51.763Z,0
2017-11-05T02:47:01.833Z,0
2017-11-05T02:48:11.891Z,0
2017-11-05T02:49:22.298Z,0
2017-11-05T02:50:32.040Z,0
2017-11-05T02:51:42.437Z,0
2017-11-05T02:52:52.238Z,0
2017-11-05T02:54:02.639Z,0
2017-11-05T02:55:13.046Z,0
2017-11-05T02:56:23.103Z,0
2017-11-05T02:57:33.170Z,0
2017-11-05T02:58:43.597Z,0
2017-11-05T02:59:53.684Z,0
2017-11-05T03:01:04.077Z,0
2017-11-05T03:32:52.787Z,0
2017-11-05T03:34:03.176Z,0
2017-11-05T03:35:13.247Z,0
2017-11-05T03:36:23.630Z,0
2017-11-05T03:37:34.006Z,0
2017-11-05T03:38:44.491Z,0
2017-11-05T03:39:54.892Z,0
2017-11-05T03:41:05.289Z,0
2017-11-05T03:42:15.676Z,0
2017-11-05T03:43:26.081Z,0
2017-11-05T03:44:35.860Z,0
2017-11-05T03:45:46.257Z,0
2017-11-05T03:46:56.654Z,0
2017-11-05T03:48:07.064Z,0
2017-11-05T03:49:17.470Z,0
2017-11-05T03:50:27.583Z,0
2017-11-05T03:51:37.651Z,0
2017-11-05T03:52:48.043Z,0
2017-11-05T03:53:58.107Z,0
2017-11-05T03:55:08.177Z,0
2017-11-05T03:56:18.292Z,0
2017-11-05T03:57:28.349Z,0
2017-11-05T03:58:38.093Z,0
2017-11-05T03:59:48.510Z,0
2017-11-05T04:00:58.903Z,0
2017-11-05T04:02:09.342Z,0
2017-11-05T04:03:19.413Z,0
2017-11-05T04:04:29.840Z,0
2017-11-05T04:05:40.231Z,0
2017-11-05T04:06:49.990Z,0
2017-11-05T04:08:00.375Z,0
2017-11-05T04:09:10.773Z,0
2017-11-05T04:10:21.182Z,0
2017-11-05T04:11:31.572Z,0
2017-11-05T04:12:41.642Z,0
2017-11-05T04:13:52.032Z,0
2017-11-05T04:15:02.430Z,0
2017-11-05T04:16:12.827Z,0
2017-11-05T04:17:23.237Z,0
2017-11-05T04:18:33.643Z,0
2017-11-05T04:19:44.084Z,0
2017-11-05T04:20:54.149Z,0
2017-11-05T04:22:04.207Z,0
2017-11-05T04:23:14.605Z,0
2017-11-05T04:24:25.003Z,0
2017-11-05T04:25:35.417Z,0
2017-11-05T04:26:45.881Z,0
2017-11-05T04:27:56.280Z,0
2017-11-05T04:29:06.006Z,0
2017-11-05T04:30:16.095Z,0
2017-11-05T04:31:26.500Z,0
2017-11-05T04:32:36.552Z,0
2017-11-05T04:33:46.944Z,0
2017-11-05T04:34:56.680Z,0
2017-11-05T04:36:07.079Z,0
2017-11-05T04:37:17.488Z,0
2017-11-05T04:38:27.894Z,0
2017-11-05T04:39:38.283Z,0
2017-11-05T04:40:48.681Z,0
2017-11-05T04:41:59.084Z,0
2017-11-05T04:43:09.478Z,0
2017-11-05T04:44:19.221Z,0
2017-11-05T04:45:29.622Z,0
2017-11-05T04:46:40.044Z,0
2017-11-05T04:47:50.479Z,0
2017-11-05T04:49:00.878Z,0
2017-11-05T04:50:11.300Z,0
2017-11-05T04:51:21.696Z,0
2017-11-05T04:52:31.792Z,0
2017-11-05T04:53:41.863Z,0
2017-11-05T04:54:52.314Z,0
2017-11-05T04:56:02.704Z,0
2017-11-05T04:57:12.774Z,0
2017-11-05T04:58:23.182Z,0
2017-11-05T04:59:32.922Z,0
2017-11-05T05:00:43.328Z,0
2017-11-05T05:01:53.744Z,0
2017-11-05T05:03:04.150Z,0
2017-11-05T05:04:14.214Z,0
2017-11-05T05:05:24.610Z,0
2017-11-05T05:06:35.026Z,0
2017-11-05T05:07:45.430Z,0
2017-11-05T05:08:55.823Z,0
2017-11-05T05:10:06.225Z,0
2017-11-05T05:11:16.621Z,0
2017-11-05T05:12:26.696Z,0
2017-11-05T05:13:37.077Z,0
2017-11-05T05:14:47.473Z,0
2017-11-05T05:15:57.867Z,0
2017-11-05T05:17:08.270Z,0
2017-11-05T05:18:18.718Z,0
2017-11-05T05:19:29.111Z,0
2017-11-05T05:20:39.733Z,0
2017-11-05T05:21:50.146Z,0
2017-11-05T05:22:59.890Z,0
2017-11-05T05:24:10.373Z,0
2017-11-05T05:25:20.777Z,0
2017-11-05T05:26:31.171Z,0
2017-11-05T05:27:41.242Z,0
2017-11-05T05:28:51.653Z,0
2017-11-05T05:30:02.047Z,0
2017-11-05T05:31:12.443Z,0
2017-11-05T05:32:22.867Z,0
2017-11-05T05:33:32.935Z,0
2017-11-05T05:34:43.327Z,0
2017-11-05T05:35:53.747Z,0
2017-11-05T05:37:03.813Z,0
2017-11-05T05:38:13.558Z,0
2017-11-05T05:39:23.969Z,0
2017-11-05T05:40:34.025Z,0
2017-11-05T05:41:44.106Z,0
2017-11-05T05:42:54.183Z,0
2017-11-05T05:44:04.584Z,0
2017-11-05T05:45:14.669Z,0
2017-11-05T05:46:25.100Z,0
2017-11-05T05:47:35.225Z,0
2017-11-05T05:48:45.306Z,0
2017-11-05T05:49:55.368Z,0
2017-11-05T05:51:05.110Z,0
2017-11-05T05:52:15.178Z,0
2017-11-05T05:53:25.621Z,0
2017-11-05T05:54:35.706Z,0
2017-11-05T05:55:46.101Z,0
2017-11-05T05:56:56.165Z,0
2017-11-05T05:58:06.560Z,0
2017-11-05T05:59:16.302Z,0
2017-11-05T06:00:26.698Z,0
2017-11-05T06:01:36.423Z,0
2017-11-05T06:02:46.492Z,5
2017-11-05T06:03:56.546Z,5
2017-11-05T06:05:06.951Z,5
2017-11-05T06:06:16.712Z,5
2017-11-05T06:07:27.156Z,5
2017-11-05T06:08:37.547Z,5
2017-11-05T06:09:47.617Z,5
2017-11-05T06:10:57.385Z,5
2017-11-05T06:12:07.781Z,5
2017-11-05T06:13:17.521Z,5
2017-11-05T06:14:27.595Z,5
2017-11-05T06:15:37.992Z,5
2017-11-05T06:16:48.100Z,5
2017-11-05T06:17:58.179Z,5
2017-11-05T06:19:08.258Z,5
2017-11-05T06:20:18.323Z,5
2017-11-05T06:21:28.730Z,10
2017-11-05T06:22:39.180Z,10
2017-11-05T06:23:49.246Z,10
2017-11-05T06:24:59.639Z,10
2017-11-05T06:26:09.728Z,10
2017-11-05T06:27:19.805Z,10
2017-11-05T06:28:29.872Z,10
2017-11-05T06:29:40.262Z,10
2017-11-05T06:30:50.662Z,10
2017-11-05T06:32:00.751Z,15
2017-11-05T06:33:11.153Z,15
2017-11-05T06:34:21.645Z,15
2017-11-05T06:35:32.069Z,15
2017-11-05T06:36:42.464Z,15
2017-11-05T06:37:52.531Z,15
2017-11-05T06:39:02.616Z,15
2017-11-05T06:40:12.683Z,15
2017-11-05T06:41:22.771Z,15
2017-11-05T06:42:33.161Z,15
2017-11-05T06:43:43.561Z,15
2017-11-05T06:44:53.642Z,10
2017-11-05T06:46:03.394Z,10
2017-11-05T06:47:13.812Z,10
2017-11-05T06:48:23.877Z,10
2017-11-05T06:49:33.949Z,10
2017-11-05T06:50:44.025Z,10
2017-11-05T06:51:54.106Z,10
2017-11-05T06:53:04.504Z,10
2017-11-05T06:54:14.245Z,10
2017-11-05T06:55:24.018Z,15
2017-11-05T06:56:34.409Z,15
2017-11-05T06:57:44.147Z,15
2017-11-05T06:58:54.540Z,10
2017-11-05T07:00:04.595Z,15
2017-11-05T07:01:14.689Z,10
2017-11-05T07:02:25.078Z,10
2017-11-05T07:03:35.750Z,10
2017-11-05T07:04:45.818Z,10
2017-11-05T07:05:56.215Z,15
2017-11-05T07:07:06.278Z,15
2017-11-05T07:08:16.693Z,15
2017-11-05T07:09:27.103Z,15
2017-11-05T07:10:37.166Z,15
2017-11-05T07:11:47.230Z,15
2017-11-05T07:12:57.374Z,20
2017-11-05T07:14:07.824Z,20
2017-11-05T07:15:18.221Z,20
2017-11-05T07:16:28.608Z,20
2017-11-05T07:17:38.681Z,20
2017-11-05T07:18:49.082Z,20
2017-11-05T07:19:59.460Z,20
2017-11-05T07:21:09.872Z,20
2017-11-05T07:22:20.303Z,20
2017-11-05T07:23:30.704Z,25
2017-11-05T07:24:41.107Z,25
2017-11-05T07:25:51.203Z,25
2017-11-05T07:27:01.283Z,25
2017-11-05T07:28:11.352Z,25
2017-11-05T07:29:21.767Z,30
2017-11-05T07:30:32.172Z,25
2017-11-05T07:31:42.240Z,30
2017-11-05T07:32:52.334Z,30
2017-11-05T07:34:02.726Z,30
2017-11-05T07:35:13.150Z,35
2017-11-05T07:36:23.553Z,35
2017-11-05T07:37:33.961Z,35
2017-11-05T07:38:44.408Z,40
2017-11-05T07:39:54.475Z,35
2017-11-05T07:41:04.881Z,35
2017-11-05T07:42:15.280Z,30
2017-11-05T07:43:25.723Z,30
2017-11-05T07:44:36.118Z,30
2017-11-05T07:45:46.530Z,30
2017-11-05T07:46:56.930Z,30
2017-11-05T07:48:07.005Z,30
2017-11-05T07:49:17.065Z,30
2017-11-05T07:50:27.535Z,30
2017-11-05T07:51:37.617Z,30
2017-11-05T07:52:48.009Z,30
2017-11-05T07:53:58.409Z,35
2017-11-05T07:55:08.799Z,35
2017-11-05T07:56:19.263Z,30
2017-11-05T07:57:29.667Z,35
2017-11-05T07:58:39.412Z,35
2017-11-05T07:59:49.835Z,35
2017-11-05T08:01:00.242Z,35
2017-11-05T08:02:10.702Z,40
2017-11-05T08:03:20.457Z,40
2017-11-05T08:04:30.556Z,40
2017-11-05T08:05:40.637Z,40
2017-11-05T08:06:51.041Z,40
2017-11-05T08:08:01.167Z,40
2017-11-05T08:09:11.584Z,40
2017-11-05T08:10:21.646Z,40
2017-11-05T08:11:32.048Z,40
2017-11-05T08:12:42.447Z,40
2017-11-05T08:13:51.579Z,40
2017-11-05T08:15:01.994Z,40
2017-11-05T08:16:11.732Z,40
2017-11-05T08:17:22.146Z,45
2017-11-05T08:18:32.221Z,50
2017-11-05T08:19:42.615Z,55
2017-11-05T08:20:53.025Z,55
2017-11-05T08:22:03.097Z,55
2017-11-05T08:23:13.164Z,55
2017-11-05T08:24:23.585Z,60
2017-11-05T08:25:34.041Z,55
2017-11-05T08:26:44.445Z,50
2017-11-05T08:27:54.856Z,45
2017-11-05T08:29:05.239Z,45
2017-11-05T08:30:15.635Z,50
2017-11-05T08:31:25.750Z,50
2017-11-05T08:32:35.832Z,45
2017-11-05T08:33:46.264Z,55
2017-11-05T08:34:56.671Z,50
2017-11-05T08:36:06.740Z,50
2017-11-05T08:37:17.191Z,45
2017-11-05T08:38:27.262Z,45
2017-11-05T08:39:37.339Z,45
2017-11-05T08:40:47.743Z,45
2017-11-05T08:41:57.807Z,45
2017-11-05T08:43:07.890Z,45
2017-11-05T08:44:18.273Z,50
2017-11-05T08:45:28.683Z,50
2017-11-05T08:46:39.075Z,50
2017-11-05T08:47:49.511Z,50
2017-11-05T08:48:59.943Z,55
2017-11-05T08:50:10.340Z,50
2017-11-05T08:51:20.750Z,50
2017-11-05T08:52:31.148Z,50
2017-11-05T08:53:41.549Z,50
2017-11-05T08:54:51.956Z,55
2017-11-05T08:56:02.366Z,50
2017-11-05T08:57:12.776Z,50
2017-11-05T08:58:22.855Z,50
2017-11-05T08:59:33.263Z,50
2017-11-05T09:00:43.732Z,55
2017-11-05T09:01:54.135Z,55
2017-11-05T09:03:04.546Z,50
2017-11-05T09:04:14.948Z,50
2017-11-05T09:05:25.045Z,50
2017-11-05T09:06:35.444Z,55
2017-11-05T09:07:45.842Z,55
2017-11-05T09:08:55.929Z,60
2017-11-05T09:10:06.345Z,60
2017-11-05T09:11:16.733Z,60
2017-11-05T09:12:27.128Z,65
2017-11-05T09:13:37.205Z,60
2017-11-05T09:14:46.938Z,60
2017-11-05T09:15:57.376Z,60
2017-11-05T09:17:07.781Z,60
2017-11-05T09:18:17.914Z,65
2017-11-05T09:19:28.334Z,65
2017-11-05T09:20:38.752Z,70
2017-11-05T09:21:49.150Z,70
2017-11-05T09:22:59.562Z,70
2017-11-05T09:24:09.970Z,70
2017-11-05T09:25:20.373Z,70
2017-11-05T09:26:30.468Z,70
2017-11-05T09:27:40.572Z,70
2017-11-05T09:28:50.994Z,75
2017-11-05T09:30:00.806Z,75
2017-11-05T09:31:11.219Z,75
2017-11-05T09:32:21.678Z,75
2017-11-05T09:33:32.089Z,75
2017-11-05T09:34:42.540Z,75
2017-11-05T09:35:52.622Z,75
2017-11-05T09:37:03.027Z,80
2017-11-05T09:38:13.465Z,75
2017-11-05T09:39:23.898Z,75
2017-11-05T09:40:34.293Z,75
2017-11-05T09:41:44.385Z,80
2017-11-05T09:42:54.791Z,80
2017-11-05T09:44:05.191Z,80
2017-11-05T09:45:15.265Z,85
2017-11-05T09:46:25.676Z,90
2017-11-05T09:47:36.087Z,85
2017-11-05T09:48:46.528Z,95
2017-11-05T09:49:56.661Z,100
2017-11-05T09:51:07.069Z,90
2017-11-05T09:52:17.485Z,85
2017-11-05T09:53:27.607Z,80
2017-11-05T09:54:37.700Z,85
2017-11-05T09:55:48.120Z,85
2017-11-05T09:56:58.190Z,80
2017-11-05T09:58:08.291Z,80
2017-11-05T09:59:18.708Z,85
2017-11-05T10:00:29.115Z,80
2017-11-05T10:01:39.197Z,80
2017-11-05T10:02:49.643Z,80
2017-11-05T10:04:00.066Z,80
2017-11-05T10:05:10.129Z,90
2017-11-05T10:06:20.198Z,95
2017-11-05T10:07:30.270Z,95
2017-11-05T10:08:40.678Z,90
2017-11-05T10:09:51.079Z,90
2017-11-05T10:11:01.158Z,90
2017-11-05T10:12:11.585Z,80
2017-11-05T10:13:21.665Z,85
2017-11-05T10:14:31.740Z,85
2017-11-05T10:15:41.816Z,85
2017-11-05T10:16:52.654Z,95
2017-11-05T10:18:03.083Z,90
2017-11-05T10:19:13.168Z,90
2017-11-05T10:20:22.922Z,90
2017-11-05T10:21:33.387Z,95
2017-11-05T10:22:43.577Z,100
2017-11-05T10:23:53.997Z,100
2017-11-05T10:25:04.398Z,90
2017-11-05T10:26:14.799Z,90
2017-11-05T10:27:25.138Z,95
2017-11-05T10:28:35.598Z,90
2017-11-05T10:29:46.036Z,100
2017-11-05T10:30:56.120Z,110
2017-11-05T10:32:06.550Z,115
2017-11-05T10:33:16.996Z,115
2017-11-05T10:34:27.419Z,115
2017-11-05T10:35:37.867Z,105
2017-11-05T10:36:48.269Z,100
2017-11-05T10:37:58.661Z,105
2017-11-05T10:39:09.077Z,110
2017-11-05T10:40:19.585Z,100
2017-11-05T10:41:29.664Z,90
2017-11-05T10:42:40.087Z,90
2017-11-05T10:43:50.539Z,90
2017-11-05T10:45:00.970Z,90
2017-11-05T10:46:11.478Z,90
2017-11-05T10:47:21.881Z,95
2017-11-05T10:48:31.965Z,110
2017-11-05T10:49:42.395Z,110
2017-11-05T10:50:52.491Z,115
2017-11-05T10:52:02.898Z,115
2017-11-05T10:53:13.305Z,115
2017-11-05T10:54:23.748Z,120
2017-11-05T10:55:33.860Z,140
2017-11-05T10:56:43.977Z,195
2017-11-05T10:57:54.066Z,180
2017-11-05T10:59:04.493Z,150
2017-11-05T11:00:14.921Z,150
2017-11-05T11:01:25.346Z,145
2017-11-05T11:02:35.445Z,150
2017-11-05T11:03:45.844Z,155
2017-11-05T11:04:55.596Z,155
2017-11-05T11:06:05.684Z,160
2017-11-05T11:07:16.098Z,220
2017-11-05T11:08:26.164Z,170
2017-11-05T11:09:36.585Z,220
2017-11-05T11:10:46.985Z,170
2017-11-05T11:11:57.453Z,210
2017-11-05T11:13:08.001Z,235
2017-11-05T11:14:18.087Z,230
2017-11-05T11:15:28.524Z,220
2017-11-05T11:16:38.948Z,225
2017-11-05T11:17:49.037Z,215
2017-11-05T11:18:59.451Z,175
2017-11-05T11:20:09.543Z,215
2017-11-05T11:21:20.002Z,235
2017-11-05T11:22:30.099Z,225
2017-11-05T11:23:40.525Z,220
2017-11-05T11:24:50.622Z,225
2017-11-05T11:26:01.042Z,220
2017-11-05T11:27:10.855Z,215
2017-11-05T11:28:20.956Z,185
2017-11-05T11:29:31.386Z,195
2017-11-05T11:30:41.804Z,215
2017-11-05T11:31:51.883Z,165
2017-11-05T11:33:02.393Z,175
2017-11-05T11:34:12.831Z,205
2017-11-05T11:35:22.958Z,180
2017-11-05T11:36:32.718Z,205
2017-11-05T11:37:43.161Z,200
2017-11-05T11:38:53.265Z,195
2017-11-05T11:40:03.699Z,165
2017-11-05T11:41:13.795Z,155
2017-11-05T11:42:23.901Z,145
2017-11-05T11:43:34.327Z,140
2017-11-05T11:44:44.447Z,150
2017-11-05T11:45:54.858Z,175
2017-11-05T11:47:05.257Z,185
2017-11-05T11:48:15.686Z,170
2017-11-05T11:49:26.119Z,145
2017-11-05T11:50:36.591Z,175
2017-11-05T11:51:47.011Z,180
2017-11-05T11:52:57.097Z,170
2017-11-05T11:54:07.520Z,185
2017-11-05T11:55:17.944Z,205
2017-11-05T11:56:28.432Z,195
2017-11-05T11:57:38.870Z,190
2017-11-05T11:58:49.282Z,195
2017-11-05T11:59:59.691Z,200
2017-11-05T12:01:10.130Z,185
2017-11-05T12:02:20.715Z,195
2017-11-05T12:03:31.168Z,200
2017-11-05T12:04:41.602Z,195
2017-11-05T12:05:51.706Z,195
2017-11-05T12:07:02.112Z,190
2017-11-05T12:08:13.215Z,200
2017-11-05T12:09:23.390Z,195
2017-11-05T12:10:33.479Z,190
2017-11-05T12:11:43.580Z,185
2017-11-05T12:12:54.022Z,195
2017-11-05T12:14:04.522Z,200
2017-11-05T12:15:14.950Z,175
2017-11-05T12:16:25.376Z,190
2017-11-05T12:17:35.812Z,180
2017-11-05T12:18:46.275Z,180
2017-11-05T12:19:56.434Z,190
2017-11-05T12:21:06.547Z,190
2017-11-05T12:22:16.976Z,190
2017-11-05T12:23:27.422Z,185
2017-11-05T12:24:37.867Z,180
2017-11-05T12:25:47.689Z,180
2017-11-05T12:26:58.205Z,180
2017-11-05T12:28:08.685Z,180
2017-11-05T12:29:19.099Z,175
2017-11-05T12:30:29.520Z,175
2017-11-05T12:31:39.952Z,175
2017-11-05T12:32:50.374Z,170
2017-11-05T12:34:00.461Z,175
2017-11-05T12:35:10.908Z,170
2017-11-05T12:36:21.343Z,170
2017-11-05T12:37:31.424Z,170
2017-11-05T12:38:41.521Z,170
2017-11-05T12:39:51.941Z,170
2017-11-05T12:41:02.368Z,170
2017-11-05T12:42:12.795Z,165
2017-11-05T12:43:23.267Z,165
2017-11-05T12:44:33.693Z,165
2017-11-05T12:45:43.799Z,155
2017-11-05T12:46:53.886Z,160
2017-11-05T12:48:03.968Z,160
2017-11-05T12:49:14.114Z,155
2017-11-05T12:50:24.548Z,155
2017-11-05T12:51:34.991Z,155
2017-11-05T12:52:45.071Z,155
2017-11-05T12:53:55.497Z,155
2017-11-05T12:55:05.996Z,155
2017-11-05T12:56:16.439Z,145
2017-11-05T12:57:26.907Z,150
2017-11-05T12:58:36.987Z,155
2017-11-05T12:59:47.415Z,145
2017-11-05T13:00:57.540Z,150
2017-11-05T13:02:07.974Z,145
2017-11-05T13:03:18.422Z,145
2017-11-05T13:04:28.883Z,145
2017-11-05T13:05:39.341Z,145
2017-11-05T13:06:49.857Z,145
2017-11-05T13:08:00.308Z,145
2017-11-05T13:09:10.412Z,140
2017-11-05T13:10:20.846Z,140
2017-11-05T13:11:31.293Z,140
2017-11-05T13:12:41.741Z,140
2017-11-05T13:13:52.184Z,140
2017-11-05T13:15:02.617Z,135
2017-11-05T13:16:13.053Z,140
2017-11-05T13:17:23.487Z,135
2017-11-05T13:18:33.940Z,135
2017-11-05T13:19:44.007Z,135
2017-11-05T13:20:54.115Z,130
2017-11-05T13:22:04.559Z,130
2017-11-05T13:23:14.996Z,130
2017-11-05T13:24:25.480Z,130
2017-11-05T13:25:35.927Z,125
2017-11-05T13:26:46.037Z,125
2017-11-05T13:27:56.471Z,125
2017-11-05T13:29:06.569Z,125
2017-11-05T13:30:17.008Z,120
2017-11-05T13:31:27.109Z,120
2017-11-05T13:32:37.536Z,120
2017-11-05T13:33:47.976Z,120
2017-11-05T13:34:58.416Z,120
2017-11-05T13:36:08.499Z,115
2017-11-05T13:37:18.969Z,115
2017-11-05T13:38:29.071Z,115
2017-11-05T13:39:39.487Z,115
2017-11-05T13:40:49.918Z,110
2017-11-05T13:42:00.448Z,110
2017-11-05T13:43:10.910Z,110
2017-11-05T13:44:21.031Z,110
2017-11-05T13:45:31.472Z,105
2017-11-05T13:46:41.885Z,105
2017-11-05T13:47:52.325Z,105
2017-11-05T13:49:02.723Z,105
2017-11-05T13:50:12.846Z,100
2017-11-05T13:51:23.286Z,100
2017-11-05T13:52:33.395Z,100
2017-11-05T13:53:43.853Z,95
2017-11-05T13:54:54.276Z,95
2017-11-05T13:56:04.697Z,95
2017-11-05T13:57:15.117Z,90
2017-11-05T13:58:25.542Z,90
2017-11-05T13:59:36.029Z,90
2017-11-05T14:00:46.455Z,90
2017-11-05T14:01:56.878Z,90
2017-11-05T14:03:07.302Z,90
2017-11-05T14:04:17.785Z,90
2017-11-05T14:05:28.249Z,85
2017-11-05T14:06:38.710Z,85
2017-11-05T14:07:49.122Z,85
2017-11-05T14:08:59.539Z,85
2017-11-05T14:10:09.985Z,80
2017-11-05T14:11:20.126Z,80
2017-11-05T14:12:30.548Z,80
2017-11-05T14:13:40.652Z,75
2017-11-05T14:14:51.096Z,75
2017-11-05T14:16:01.538Z,75
2017-11-05T14:17:11.724Z,75
2017-11-05T14:18:22.155Z,70
2017-11-05T14:19:32.603Z,70
2017-11-05T14:20:43.007Z,70
2017-11-05T14:21:53.430Z,65
2017-11-05T14:23:03.861Z,65
2017-11-05T14:24:14.314Z,60
2017-11-05T14:25:24.749Z,60
2017-11-05T14:26:34.842Z,60
2017-11-05T14:27:44.934Z,55
2017-11-05T14:28:55.420Z,55
2017-11-05T14:30:05.850Z,45
2017-11-05T14:31:17.000Z,45
2017-11-05T14:32:27.108Z,40
2017-11-05T14:33:37.548Z,40
2017-11-05T14:34:47.987Z,35
2017-11-05T14:35:58.134Z,35
2017-11-05T14:37:08.562Z,35
2017-11-05T14:38:18.987Z,35
2017-11-05T14:39:29.429Z,30
2017-11-05T14:40:39.568Z,30
2017-11-05T14:41:49.994Z,30
2017-11-05T14:43:00.447Z,30
2017-11-05T14:44:10.892Z,30
2017-11-05T14:45:21.347Z,25
2017-11-05T14:46:31.849Z,25
2017-11-05T14:47:42.308Z,25
2017-11-05T14:48:52.735Z,25
2017-11-05T14:50:03.171Z,25
2017-11-05T14:51:13.601Z,25
2017-11-05T14:52:23.732Z,20
2017-11-05T14:53:34.191Z,20
2017-11-05T14:54:44.301Z,20
2017-11-05T14:55:54.758Z,20
2017-11-05T14:57:05.218Z,20
2017-11-05T14:58:15.691Z,20
2017-11-05T14:59:26.114Z,20
2017-11-05T15:00:36.195Z,15
2017-11-05T15:01:46.297Z,15
2017-11-05T15:02:56.403Z,15
2017-11-05T15:04:06.935Z,15
2017-11-05T15:05:17.050Z,15
2017-11-05T15:06:27.500Z,15
2017-11-05T15:07:37.951Z,10
2017-11-05T15:08:48.063Z,10
2017-11-05T15:09:58.565Z,10
2017-11-05T15:11:08.669Z,10
2017-11-05T15:12:18.749Z,10
2017-11-05T15:13:29.173Z,10
2017-11-05T15:14:39.270Z,10
2017-11-05T15:15:49.495Z,5
2017-11-05T15:17:01.163Z,5
2017-11-05T15:18:10.561Z,5
2017-11-05T15:19:20.652Z,5
2017-11-05T15:20:31.096Z,5
2017-11-05T15:21:41.829Z,5
2017-11-05T15:22:51.931Z,5
2017-11-05T15:24:02.370Z,5
2017-11-05T15:25:12.493Z,5
2017-11-05T15:26:22.922Z,0
2017-11-05T15:27:33.346Z,0
2017-11-05T15:28:43.473Z,0
2017-11-05T15:29:53.908Z,0
2017-11-05T15:31:04.368Z,0
2017-11-05T15:32:14.815Z,0
2017-11-05T15:33:25.362Z,0
2017-11-05T15:34:36.020Z,0
2017-11-05T15:35:46.460Z,0
2017-11-05T15:36:56.907Z,0
2017-11-05T15:38:07.371Z,0
2017-11-05T15:39:17.807Z,0
2017-11-05T15:40:28.244Z,0
2017-11-05T15:41:38.705Z,0
2017-11-05T15:42:49.131Z,0
2017-11-05T15:43:59.581Z,0
2017-11-05T15:45:10.072Z,0
2017-11-05T15:46:20.650Z,0
2017-11-05T15:47:31.096Z,0
2017-11-05T15:48:41.198Z,0
2017-11-05T15:49:51.353Z,0
2017-11-05T15:51:01.787Z,0
2017-11-05T15:52:11.880Z,0
2017-11-05T15:53:21.974Z,0
2017-11-05T15:54:32.065Z,0
2017-11-05T15:55:42.159Z,0
2017-11-05T15:56:52.592Z,0
2017-11-05T15:58:03.031Z,0
2017-11-05T15:59:13.490Z,0
2017-11-05T16:00:23.966Z,0
2017-11-05T16:01:34.411Z,0
2017-11-05T16:02:44.933Z,0
2017-11-05T16:03:55.388Z,0
2017-11-05T16:05:05.830Z,0
2017-11-05T16:06:15.924Z,0
2017-11-05T16:07:26.396Z,0
2017-11-05T16:08:36.891Z,0
2017-11-05T16:09:46.991Z,0
2017-11-05T16:10:57.417Z,0
2017-11-05T16:12:07.502Z,0
2017-11-05T16:13:17.947Z,0
2017-11-05T16:14:28.403Z,0
2017-11-05T16:15:38.826Z,0
2017-11-05T16:16:49.284Z,0
2017-11-05T16:17:59.699Z,0
2017-11-05T16:19:09.797Z,0
2017-11-05T16:20:20.319Z,0
2017-11-05T16:21:30.748Z,0
2017-11-05T16:22:41.184Z,0
2017-11-05T16:23:51.612Z,0
2017-11-05T16:25:02.067Z,0
2017-11-05T16:26:12.219Z,0
2017-11-05T16:27:22.673Z,0
2017-11-05T16:28:33.124Z,0
2017-11-05T16:29:43.217Z,0
2017-11-05T16:30:53.692Z,0
2017-11-05T16:32:03.891Z,0
2017-11-05T16:33:14.331Z,0
2017-11-05T16:34:24.129Z,0
2017-11-05T16:35:34.576Z,0
2017-11-05T16:36:45.057Z,0
2017-11-05T16:37:55.227Z,0
2017-11-05T16:39:05.711Z,0
2017-11-05T16:40:16.172Z,0
2017-11-05T16:41:26.278Z,0
2017-11-05T16:42:36.380Z,0
2017-11-05T16:43:46.822Z,0
2017-11-05T16:44:57.252Z,0
2017-11-05T16:46:08.086Z,0
2017-11-05T16:47:18.530Z,0
2017-11-05T16:48:28.973Z,0
2017-11-05T16:49:38.735Z,0
2017-11-05T16:50:49.962Z,0
2017-11-05T16:52:00.379Z,0
2017-11-05T16:53:10.538Z,0
2017-11-05T16:54:20.980Z,0
2017-11-05T16:55:31.414Z,0
2017-11-05T16:56:41.851Z,0
2017-11-05T16:57:52.887Z,0
2017-11-05T16:59:03.268Z,0
2017-11-05T17:00:13.701Z,0
2017-11-05T17:01:24.141Z,0
2017-11-05T17:02:34.587Z,0
2017-11-05T17:03:45.302Z,0
2017-11-05T17:04:55.766Z,0
2017-11-05T17:06:06.358Z,0
2017-11-05T17:07:17.301Z,0
2017-11-05T17:08:27.752Z,0
2017-11-05T17:09:37.865Z,0
2017-11-05T17:10:48.814Z,0
2017-11-05T17:11:58.932Z,0
2017-11-05T17:13:09.362Z,0
2017-11-05T17:14:19.816Z,0
2017-11-05T17:15:30.265Z,0
2017-11-05T17:16:42.004Z,0
2017-11-05T17:17:53.027Z,0
2017-11-05T17:19:03.679Z,0
2017-11-05T17:20:14.126Z,0
2017-11-05T17:21:25.635Z,0
2017-11-05T17:22:36.076Z,0
2017-11-05T17:23:46.171Z,0
2017-11-05T17:24:56.600Z,0
2017-11-05T17:26:07.035Z,0
2017-11-05T17:27:16.819Z,0
2017-11-05T17:28:27.312Z,0